Time;durP1;ratioP1;P1;durP2;ratioP2;P2;SDS_P1;SDS_P2;PMS_P1;PMS_P2;Temp;Humidity;BMP_temperature;BMP_pressure;BME280_temperature;BME280_humidity;BME280_pressure;Samples;Min_cycle;Max_cycle;Signal;HPM_P1;HPM_P2
2021/01/05 00:01:43;;;;;;;37.10;19.20;;;;;;;-1.04;86.54;100882.05;1721111;83;22131;-70
2021/01/05 00:04:11;;;;;;;38.63;20.80;;;;;;;-1.04;86.52;100874.27;1723241;83;21169;-70
2021/01/05 00:06:39;;;;;;;41.37;22.60;;;;;;;-1.03;86.53;100875.13;1722762;83;21498;-69
2021/01/05 00:09:06;;;;;;;38.30;19.02;;;;;;;-1.03;86.51;100878.56;1721974;83;21077;-70
2021/01/05 00:11:34;;;;;;;35.38;18.55;;;;;;;-1.03;86.53;100876.42;1721176;83;21149;-69
2021/01/05 00:14:02;;;;;;;38.55;20.43;;;;;;;-1.03;86.52;100871.23;1718047;83;22045;-70
2021/01/05 00:16:30;;;;;;;47.50;23.47;;;;;;;-1.05;86.52;100877.76;1698269;83;21180;-70
2021/01/05 00:18:58;;;;;;;41.55;23.07;;;;;;;-1.04;86.54;100879.91;1722537;83;21074;-69
2021/01/05 00:21:26;;;;;;;42.00;21.97;;;;;;;-1.05;86.54;100871.72;1721938;83;21089;-69
2021/01/05 00:23:54;;;;;;;43.48;24.40;;;;;;;-1.08;86.55;100875.22;1723482;83;21121;-69
2021/01/05 00:26:22;;;;;;;36.17;19.50;;;;;;;-1.07;86.55;100870.44;1722833;81;21898;-69
2021/01/05 00:28:49;;;;;;;41.10;22.70;;;;;;;-1.06;86.57;100868.69;1721940;83;21211;-69
2021/01/05 00:31:17;;;;;;;39.53;20.37;;;;;;;-1.04;86.59;100870.38;1722871;83;21093;-69
2021/01/05 00:33:45;;;;;;;42.35;21.68;;;;;;;-1.03;86.58;100867.34;1722474;82;21089;-69
2021/01/05 00:36:13;;;;;;;42.30;21.45;;;;;;;-1.00;86.60;100873.74;1723177;83;21124;-69
2021/01/05 00:38:41;;;;;;;49.03;26.35;;;;;;;-1.00;86.60;100859.48;1723074;83;22065;-69
2021/01/05 00:41:08;;;;;;;38.65;20.05;;;;;;;-1.01;86.58;100859.93;1722901;83;21081;-69
2021/01/05 00:43:36;;;;;;;40.12;21.37;;;;;;;-1.00;86.58;100858.19;1720974;83;21101;-70
2021/01/05 00:46:05;;;;;;;33.48;18.32;;;;;;;-1.00;86.60;100868.56;1721629;83;21177;-69
2021/01/05 00:48:32;;;;;;;38.10;21.65;;;;;;;-1.00;86.60;100867.27;1722585;83;21121;-69
2021/01/05 00:51:00;;;;;;;30.27;16.57;;;;;;;-1.00;86.59;100866.81;1716455;83;22032;-69
2021/01/05 00:53:29;;;;;;;36.35;20.12;;;;;;;-0.99;86.59;100861.19;1722628;83;21066;-69
2021/01/05 00:55:57;;;;;;;31.87;17.90;;;;;;;-0.98;86.59;100866.78;1692276;83;21221;-69
2021/01/05 00:58:24;;;;;;;45.10;22.25;;;;;;;-0.98;86.59;100860.30;1713410;82;21456;-69
2021/01/05 01:00:53;;;;;;;40.38;22.35;;;;;;;-0.99;86.58;100856.00;1721899;83;21105;-70
2021/01/05 01:03:21;;;;;;;32.28;17.73;;;;;;;-1.00;86.58;100851.70;1696041;83;22087;-69
2021/01/05 01:05:49;;;;;;;47.48;26.65;;;;;;;-1.00;86.57;100846.08;1715435;83;21553;-69
2021/01/05 01:08:19;;;;;;;41.08;21.65;;;;;;;-0.99;86.59;100856.85;1722563;83;21118;-70
2021/01/05 01:10:49;;;;;;;30.62;16.95;;;;;;;-0.97;86.62;100854.22;1718640;83;21525;-69
2021/01/05 01:13:18;;;;;;;34.03;18.50;;;;;;;-0.96;86.62;100860.69;1713806;83;21085;-69
2021/01/05 01:15:46;;;;;;;34.58;19.48;;;;;;;-0.97;86.63;100850.33;1707642;83;22938;-69
2021/01/05 01:18:14;;;;;;;43.02;22.70;;;;;;;-1.00;86.62;100844.78;1706400;83;21137;-70
2021/01/05 01:20:42;;;;;;;42.15;22.60;;;;;;;-1.00;86.64;100845.22;1709257;83;21121;-69
2021/01/05 01:23:10;;;;;;;39.78;22.52;;;;;;;-0.99;86.68;100837.85;1723259;83;21114;-69
2021/01/05 01:25:40;;;;;;;45.30;24.23;;;;;;;-0.97;86.68;100833.47;1719858;81;21157;-69
2021/01/05 01:28:09;;;;;;;38.58;21.70;;;;;;;-0.96;86.70;100835.20;1717100;83;22036;-69
2021/01/05 01:30:39;;;;;;;34.58;19.23;;;;;;;-0.94;86.72;100845.09;1710362;83;21493;-70
2021/01/05 01:33:08;;;;;;;35.28;17.95;;;;;;;-0.93;86.71;100837.71;1722482;83;21074;-70
2021/01/05 01:35:37;;;;;;;29.85;16.70;;;;;;;-0.92;86.72;100840.70;1723224;83;21604;-69
2021/01/05 01:38:05;;;;;;;34.40;18.82;;;;;;;-0.92;86.70;100832.93;1721046;83;21069;-69
2021/01/05 01:40:41;;;;;;;38.50;23.20;;;;;;;-0.92;86.71;100832.93;1698882;83;21862;-69
2021/01/05 01:43:23;;;;;;;36.13;19.82;;;;;;;-0.91;86.71;100825.55;1715903;83;21206;-69
2021/01/05 01:45:53;;;;;;;30.15;18.60;;;;;;;-0.89;86.71;100825.06;1723284;83;21161;-69
2021/01/05 01:48:22;;;;;;;38.88;22.90;;;;;;;-0.87;86.67;100819.39;1721911;83;21445;-69
2021/01/05 01:50:54;;;;;;;27.22;16.27;;;;;;;-0.87;86.66;100815.08;1713919;83;21552;-69
2021/01/05 01:53:56;;;;;;;35.95;22.20;;;;;;;-0.85;86.65;100817.63;1709462;83;23529;-69
2021/01/05 01:57:05;;;;;;;41.35;23.10;;;;;;;-0.84;86.65;100819.33;1708917;83;21172;-69
2021/01/05 02:00:11;;;;;;;29.35;18.42;;;;;;;-0.83;86.63;100816.29;1703293;83;21129;-70
2021/01/05 02:03:17;;;;;;;35.63;22.60;;;;;;;-0.82;86.64;100816.25;1699769;83;21161;-69
2021/01/05 02:06:06;;;;;;;40.48;23.32;;;;;;;-0.81;86.62;100813.20;1709985;83;21508;-69
2021/01/05 02:08:52;;;;;;;31.60;19.82;;;;;;;-0.79;86.59;100807.08;1726462;83;22130;-70
2021/01/05 02:11:49;;;;;;;35.52;21.50;;;;;;;-0.76;86.60;100809.62;1718875;83;21204;-70
2021/01/05 02:14:58;;;;;;;24.05;14.98;;;;;;;-0.75;86.59;100808.72;1723108;83;21062;-69
2021/01/05 02:17:56;;;;;;;26.50;17.30;;;;;;;-0.74;86.54;100805.23;1693779;84;21116;-69
2021/01/05 02:20:30;;;;;;;24.52;15.45;;;;;;;-0.75;86.49;100799.64;1700311;83;21086;-69
2021/01/05 02:23:25;;;;;;;33.05;19.42;;;;;;;-0.73;86.45;100794.41;1713935;83;22967;-69
2021/01/05 02:26:26;;;;;;;23.45;15.18;;;;;;;-0.72;86.46;100795.66;1721416;82;21146;-69
2021/01/05 02:28:59;;;;;;;30.02;18.92;;;;;;;-0.68;86.43;100792.08;1654005;84;21137;-71
2021/01/05 02:31:48;;;;;;;27.10;16.97;;;;;;;-0.67;86.41;100791.22;1641354;84;21090;-71
2021/01/05 02:34:54;;;;;;;26.23;17.77;;;;;;;-0.66;86.37;100792.92;1692741;84;21074;-70
2021/01/05 02:37:49;;;;;;;26.07;17.80;;;;;;;-0.67;86.33;100789.92;1659702;84;22087;-69
2021/01/05 02:40:51;;;;;;;23.90;16.10;;;;;;;-0.62;86.30;100783.30;1860520;76;29510;-70
2021/01/05 02:44:01;;;;;;;23.77;14.43;;;;;;;-0.66;86.25;100778.66;1839959;77;21111;-70
2021/01/05 02:46:55;;;;;;;24.40;16.00;;;;;;;-0.66;86.21;100766.13;1818152;78;22779;-70
2021/01/05 02:49:46;;;;;;;26.05;16.50;;;;;;;-0.68;86.18;100762.25;1809050;78;21056;-69
2021/01/05 02:53:19;;;;;;;27.40;18.12;;;;;;;-0.66;86.16;100766.13;1810875;78;21064;-70
2021/01/05 02:56:25;;;;;;;28.35;18.60;;;;;;;-0.66;86.10;100756.60;1808619;78;21158;-69
2021/01/05 02:59:52;;;;;;;24.72;16.90;;;;;;;-0.66;86.10;100746.23;1815804;78;21159;-70
2021/01/05 03:02:58;;;;;;;26.60;17.00;;;;;;;-0.61;86.02;100741.75;1850189;76;29067;-70
2021/01/05 03:05:47;;;;;;;31.75;21.48;;;;;;;-0.66;85.97;100737.15;1773538;78;21089;-70
2021/01/05 03:08:45;;;;;;;31.77;20.45;;;;;;;-0.65;85.94;100745.33;1880124;74;29404;-70
2021/01/05 03:11:15;;;;;;;24.15;16.45;;;;;;;-0.70;85.85;100747.19;1722125;77;21130;-70
2021/01/05 03:14:32;;;;;;;27.93;18.70;;;;;;;-0.70;85.84;100743.30;1816432;77;21864;-69
2021/01/05 03:17:18;;;;;;;28.85;20.05;;;;;;;-0.64;85.83;100734.06;1797241;78;29167;-70
2021/01/05 03:20:23;;;;;;;23.75;16.90;;;;;;;-0.60;85.82;100726.58;1875933;76;28942;-70
2021/01/05 03:23:11;;;;;;;36.20;24.37;;;;;;;-0.61;85.80;100730.52;1773134;80;21128;-71
2021/01/05 03:26:00;;;;;;;26.50;17.07;;;;;;;-0.60;85.78;100722.69;1737518;81;22087;-69
2021/01/05 03:28:46;;;;;;;27.80;18.82;;;;;;;-0.60;85.71;100716.66;1781543;79;21126;-69
2021/01/05 03:31:46;;;;;;;25.52;16.90;;;;;;;-0.63;85.68;100712.41;1776647;79;21078;-71
2021/01/05 03:34:33;;;;;;;25.48;17.15;;;;;;;-0.61;85.68;100714.95;1769107;80;21057;-69
2021/01/05 03:37:18;;;;;;;26.17;18.30;;;;;;;-0.59;85.66;100719.64;1759567;80;21109;-69
2021/01/05 03:40:09;;;;;;;28.17;22.97;;;;;;;-0.53;85.64;100709.11;1870899;75;27818;-70
2021/01/05 03:42:55;;;;;;;30.77;21.33;;;;;;;-0.53;85.59;100703.92;1769879;80;21047;-70
2021/01/05 03:45:41;;;;;;;31.17;22.48;;;;;;;-0.48;85.52;100709.84;1762356;80;21901;-69
2021/01/05 03:48:27;;;;;;;30.60;21.60;;;;;;;-0.48;85.51;100709.84;1848228;77;21627;-70
2021/01/05 03:51:13;;;;;;;29.35;19.98;;;;;;;-0.48;85.47;100706.37;1768375;79;21601;-70
2021/01/05 03:53:59;;;;;;;29.10;19.17;;;;;;;-0.49;85.45;100704.67;1775054;80;21110;-70
2021/01/05 03:56:50;;;;;;;26.42;17.30;;;;;;;-0.43;85.44;100703.20;1845768;76;29076;-70
2021/01/05 03:59:36;;;;;;;26.48;17.07;;;;;;;-0.49;85.38;100696.89;1811270;77;21059;-70
2021/01/05 04:02:22;;;;;;;24.20;16.27;;;;;;;-0.48;85.34;100693.39;1822340;78;21864;-69
2021/01/05 04:04:50;;;;;;;23.85;17.10;;;;;;;-0.51;85.28;100689.59;1828148;78;21739;-69
2021/01/05 04:07:18;;;;;;;23.95;15.78;;;;;;;-0.52;85.26;100696.98;1839246;78;21040;-69
2021/01/05 04:09:45;;;;;;;28.27;18.75;;;;;;;-0.52;85.21;100699.58;1814683;78;22223;-70
2021/01/05 04:12:13;;;;;;;23.65;16.25;;;;;;;-0.54;85.21;100700.08;1816958;78;21527;-70
2021/01/05 04:14:40;;;;;;;24.10;16.97;;;;;;;-0.53;85.22;100698.73;1827618;78;22893;-69
2021/01/05 04:17:09;;;;;;;27.70;17.97;;;;;;;-0.52;85.22;100692.64;1841435;78;21060;-69
2021/01/05 04:19:38;;;;;;;32.40;19.32;;;;;;;-0.50;85.23;100693.45;1808794;78;21175;-69
2021/01/05 04:22:05;;;;;;;48.92;28.60;;;;;;;-0.48;85.19;100702.48;1778878;79;21198;-70
2021/01/05 04:24:33;;;;;;;45.75;29.05;;;;;;;-0.47;85.17;100695.13;1815127;78;21170;-70
2021/01/05 04:27:01;;;;;;;55.43;30.62;;;;;;;-0.45;85.17;100698.52;1839295;78;21873;-70
2021/01/05 04:29:29;;;;;;;69.07;34.98;;;;;;;-0.43;85.16;100691.08;1839955;78;21147;-70
2021/01/05 04:31:56;;;;;;;68.97;33.30;;;;;;;-0.43;85.10;100700.16;1840776;78;21108;-69
2021/01/05 04:34:24;;;;;;;62.10;31.15;;;;;;;-0.43;85.02;100695.42;1822677;78;21127;-70
2021/01/05 04:36:52;;;;;;;60.88;29.37;;;;;;;-0.45;84.99;100690.28;1811750;78;21555;-69
2021/01/05 04:39:20;;;;;;;67.92;34.15;;;;;;;-0.43;85.02;100691.08;1807878;79;22051;-70
2021/01/05 04:41:54;;;;;;;53.00;27.75;;;;;;;-0.41;85.00;100684.55;1808115;79;21091;-70
2021/01/05 04:44:22;;;;;;;59.18;31.70;;;;;;;-0.36;85.01;100687.42;1782102;79;21187;-69
2021/01/05 04:47:20;;;;;;;45.25;26.85;;;;;;;-0.36;84.99;100690.02;1726322;79;21364;-69
2021/01/05 04:50:05;;;;;;;56.45;31.75;;;;;;;-0.32;84.99;100686.87;1790734;79;21045;-70
2021/01/05 04:52:46;;;;;;;47.03;27.25;;;;;;;-0.30;84.98;100698.05;1757013;80;22064;-69
2021/01/05 04:55:26;;;;;;;45.67;27.48;;;;;;;-0.28;84.95;100694.98;1764286;79;21575;-70
2021/01/05 04:58:05;;;;;;;45.60;27.80;;;;;;;-0.28;84.95;100687.20;1791642;78;21122;-71
2021/01/05 05:00:35;;;;;;;37.70;22.85;;;;;;;-0.27;84.94;100683.70;1803561;79;21138;-71
2021/01/05 05:03:34;;;;;;;35.55;21.70;;;;;;;-0.24;84.96;100687.50;1752153;79;21141;-71
2021/01/05 05:06:17;;;;;;;33.00;19.23;;;;;;;-0.23;84.95;100682.70;1810686;79;21953;-70
2021/01/05 05:09:02;;;;;;;39.27;25.08;;;;;;;-0.20;84.98;100686.95;1809992;79;21119;-70
2021/01/05 05:11:47;;;;;;;35.70;23.40;;;;;;;-0.21;84.99;100692.59;1783279;79;20936;-70
2021/01/05 05:14:25;;;;;;;35.03;23.50;;;;;;;-0.19;85.01;100688.22;1783716;78;21439;-70
2021/01/05 05:17:16;;;;;;;35.35;23.42;;;;;;;-0.16;85.03;100688.13;1810308;78;21151;-70
2021/01/05 05:20:07;;;;;;;33.75;23.50;;;;;;;-0.12;85.04;100692.76;1783870;79;21897;-69
2021/01/05 05:22:49;;;;;;;35.65;24.77;;;;;;;-0.12;85.01;100690.16;1781608;79;21154;-69
2021/01/05 05:25:23;;;;;;;35.13;24.45;;;;;;;-0.11;85.05;100686.22;1713523;80;21345;-69
2021/01/05 05:28:09;;;;;;;30.10;19.75;;;;;;;-0.10;85.03;100683.17;1790181;79;21329;-71
2021/01/05 05:30:40;;;;;;;31.73;21.73;;;;;;;-0.09;85.03;100674.06;1793475;78;21074;-70
2021/01/05 05:33:33;;;;;;;34.08;25.72;;;;;;;-0.08;85.03;100678.80;1772230;79;22067;-70
2021/01/05 05:36:27;;;;;;;28.90;19.45;;;;;;;-0.07;85.05;100682.66;1786434;79;21159;-70
2021/01/05 05:39:16;;;;;;;34.03;22.95;;;;;;;-0.06;85.03;100679.61;1770679;79;21111;-66
2021/01/05 05:41:59;;;;;;;29.82;21.37;;;;;;;-0.04;85.05;100679.10;1761114;79;21164;-66
2021/01/05 05:44:35;;;;;;;28.83;20.82;;;;;;;-0.02;85.02;100673.41;1813637;78;21063;-68
2021/01/05 05:47:33;;;;;;;21.42;15.40;;;;;;;0.01;85.02;100672.03;1813268;79;22030;-67
2021/01/05 05:50:09;;;;;;;23.07;15.45;;;;;;;0.01;85.01;100675.08;1784764;79;21652;-65
2021/01/05 05:53:00;;;;;;;26.12;17.52;;;;;;;0.00;84.96;100676.83;1812819;79;21048;-67
2021/01/05 05:55:59;;;;;;;23.55;16.93;;;;;;;-0.01;84.96;100687.64;1811545;79;21246;-73
2021/01/05 05:58:34;;;;;;;23.40;15.72;;;;;;;0.00;84.94;100691.11;1804845;79;21044;-71
2021/01/05 06:01:05;;;;;;;23.62;15.85;;;;;;;0.02;84.95;100686.71;1785671;79;22069;-69
2021/01/05 06:03:33;;;;;;;18.90;13.65;;;;;;;0.04;84.94;100685.36;1770701;79;21138;-69
2021/01/05 06:06:01;;;;;;;24.63;17.60;;;;;;;0.05;84.93;100680.56;1806831;79;21520;-72
2021/01/05 06:08:29;;;;;;;18.45;13.03;;;;;;;0.04;84.89;100683.61;1807737;79;21047;-70
2021/01/05 06:10:56;;;;;;;25.00;17.35;;;;;;;0.06;84.87;100683.11;1802360;79;21048;-69
2021/01/05 06:13:24;;;;;;;18.77;12.90;;;;;;;0.07;84.86;100682.66;1793752;79;21897;-71
2021/01/05 06:15:52;;;;;;;25.97;17.52;;;;;;;0.10;84.84;100682.14;1786858;79;21187;-71
2021/01/05 06:18:20;;;;;;;20.88;14.40;;;;;;;0.11;84.83;100672.14;1802759;79;21067;-72
2021/01/05 06:20:49;;;;;;;21.80;15.60;;;;;;;0.13;84.81;100673.39;1805771;78;21075;-71
2021/01/05 06:23:18;;;;;;;21.00;16.27;;;;;;;0.14;84.77;100682.88;1722077;83;21073;-71
2021/01/05 06:25:47;;;;;;;24.15;17.25;;;;;;;0.16;84.73;100687.11;1748092;81;22071;-70
2021/01/05 06:28:14;;;;;;;21.02;16.27;;;;;;;0.18;84.71;100685.77;1715035;82;21176;-70
2021/01/05 06:30:42;;;;;;;18.70;14.53;;;;;;;0.19;84.70;100682.27;1754121;80;21172;-70
2021/01/05 06:33:11;;;;;;;17.85;14.40;;;;;;;0.19;84.69;100676.65;1752226;80;21061;-71
2021/01/05 06:35:38;;;;;;;18.85;13.35;;;;;;;0.22;84.65;100665.30;1727544;81;21120;-81
2021/01/05 06:38:06;;;;;;;19.70;15.00;;;;;;;0.24;84.66;100669.55;1753612;80;22075;-77
2021/01/05 06:40:33;;;;;;;22.52;17.27;;;;;;;0.26;84.63;100672.09;1756604;80;21120;-79
2021/01/05 06:43:02;;;;;;;27.98;20.43;;;;;;;0.28;84.60;100668.98;1757241;81;21053;-81
2021/01/05 06:45:32;;;;;;;23.55;18.27;;;;;;;0.30;84.55;100663.31;1757184;80;21088;-78
2021/01/05 06:47:59;;;;;;;27.98;21.02;;;;;;;0.31;84.53;100662.86;1757382;81;21128;-78
2021/01/05 06:50:29;;;;;;;23.77;18.20;;;;;;;0.31;84.50;100664.16;1757275;81;23029;-78
2021/01/05 06:52:57;;;;;;;21.00;16.07;;;;;;;0.31;84.50;100662.41;1757185;81;21068;-79
2021/01/05 06:55:25;;;;;;;27.98;20.70;;;;;;;0.33;84.46;100669.70;1757163;81;21128;-78
2021/01/05 06:57:53;;;;;;;20.70;16.50;;;;;;;0.33;84.44;100668.41;1757120;81;21571;-79
2021/01/05 07:00:26;;;;;;;28.77;21.90;;;;;;;0.33;84.43;100668.41;1757251;81;21057;-78
2021/01/05 07:02:54;;;;;;;26.48;20.65;;;;;;;0.33;84.38;100660.61;1757506;81;21905;-79
2021/01/05 07:05:21;;;;;;;22.82;17.40;;;;;;;0.33;84.39;100654.11;1757336;81;21461;-79
2021/01/05 07:07:49;;;;;;;19.32;15.38;;;;;;;0.35;84.36;100661.40;1756454;81;21060;-78
2021/01/05 07:10:18;;;;;;;19.25;14.40;;;;;;;0.37;84.32;100661.34;1756276;81;21507;-79
2021/01/05 07:12:47;;;;;;;21.68;16.52;;;;;;;0.36;84.16;100668.29;1757325;81;21156;-78
2021/01/05 07:15:16;;;;;;;23.90;18.20;;;;;;;0.35;84.10;100659.25;1757320;81;22078;-79
2021/01/05 07:17:44;;;;;;;20.75;16.25;;;;;;;0.35;84.04;100673.54;1757211;80;21117;-78
2021/01/05 07:20:12;;;;;;;23.25;16.50;;;;;;;0.34;84.03;100677.89;1757352;81;21140;-79
2021/01/05 07:22:40;;;;;;;30.32;23.55;;;;;;;0.35;84.01;100681.33;1757303;80;21077;-79
2021/01/05 07:25:12;;;;;;;28.65;21.17;;;;;;;0.35;83.97;100678.73;1757254;80;21056;-77
2021/01/05 07:27:39;;;;;;;26.73;19.30;;;;;;;0.34;83.96;100686.98;1757312;81;21899;-79
2021/01/05 07:30:07;;;;;;;29.63;23.40;;;;;;;0.34;83.91;100680.48;1757202;81;21049;-79
2021/01/05 07:32:35;;;;;;;24.75;20.65;;;;;;;0.33;83.89;100684.44;1757362;81;21556;-79
2021/01/05 07:35:04;;;;;;;20.52;16.42;;;;;;;0.34;83.90;100677.89;1757282;81;21544;-78
2021/01/05 07:37:35;;;;;;;22.32;17.82;;;;;;;0.36;83.88;100672.64;1754793;81;21183;-79
2021/01/05 07:40:06;;;;;;;21.95;17.65;;;;;;;0.35;83.78;100682.19;1730046;80;22093;-80
2021/01/05 07:42:33;;;;;;;20.32;16.05;;;;;;;0.31;83.66;100683.20;1757270;80;21125;-80
2021/01/05 07:45:05;;;;;;;26.20;21.75;;;;;;;0.26;83.37;100688.97;1757293;81;21065;-79
2021/01/05 07:47:36;;;;;;;23.45;18.05;;;;;;;0.21;83.31;100678.74;1757192;80;21123;-79
2021/01/05 07:50:26;;;;;;;24.77;19.50;;;;;;;0.20;83.20;100678.34;1757253;81;21104;-79
2021/01/05 07:52:57;;;;;;;24.15;18.73;;;;;;;0.19;83.15;100682.27;1708912;84;21990;-79
2021/01/05 07:55:26;;;;;;;26.95;18.25;;;;;;;0.16;83.02;100682.38;1708678;84;21086;-79
2021/01/05 07:57:54;;;;;;;28.52;21.12;;;;;;;0.14;82.98;100692.81;1709416;84;21071;-78
2021/01/05 08:00:25;;;;;;;22.32;16.17;;;;;;;0.12;82.88;100697.22;1713903;83;21039;-79
2021/01/05 08:02:56;;;;;;;26.62;20.12;;;;;;;0.11;82.92;100699.86;1677033;85;21496;-79
2021/01/05 08:05:27;;;;;;;32.48;25.17;;;;;;;0.11;82.92;100682.98;1676573;85;22170;-79
2021/01/05 08:07:55;;;;;;;31.27;24.60;;;;;;;0.11;82.95;100687.73;1696868;84;21129;-80
2021/01/05 08:10:30;;;;;;;34.33;26.68;;;;;;;0.13;82.97;100679.43;1709771;83;21585;-78
2021/01/05 08:12:59;;;;;;;29.45;22.10;;;;;;;0.13;83.00;100663.84;1708222;83;21138;-73
2021/01/05 08:15:31;;;;;;;35.08;25.68;;;;;;;0.15;83.02;100664.64;1707235;83;21517;-77
2021/01/05 08:17:59;;;;;;;35.25;25.55;;;;;;;0.17;83.01;100652.90;1710812;83;21862;-76
2021/01/05 08:20:29;;;;;;;37.78;26.02;;;;;;;0.20;83.02;100651.52;1710235;83;21512;-79
2021/01/05 08:22:57;;;;;;;31.48;23.92;;;;;;;0.21;83.00;100646.72;1708664;83;21190;-70
2021/01/05 08:25:25;;;;;;;34.33;24.72;;;;;;;0.22;82.95;100649.27;1710316;83;21133;-71
2021/01/05 08:27:53;;;;;;;35.00;25.43;;;;;;;0.22;82.95;100645.82;1710301;83;21167;-69
2021/01/05 08:30:28;;;;;;;31.02;24.02;;;;;;;0.20;82.93;100639.38;1710381;83;21732;-70
2021/01/05 08:33:06;;;;;;;34.50;24.80;;;;;;;0.20;82.85;100632.89;1708502;83;21157;-71
2021/01/05 08:35:35;;;;;;;35.75;25.40;;;;;;;0.20;82.78;100620.35;1710612;82;21087;-79
2021/01/05 08:38:04;;;;;;;30.60;22.95;;;;;;;0.18;82.67;100619.53;1682289;83;21165;-72
2021/01/05 08:40:33;;;;;;;41.53;28.50;;;;;;;0.18;82.57;100614.33;1682007;83;21066;-72
2021/01/05 08:43:06;;;;;;;33.45;23.60;;;;;;;0.17;82.45;100608.74;1665561;86;22153;-72
2021/01/05 08:45:33;;;;;;;38.38;26.97;;;;;;;0.15;82.41;100618.34;1665487;85;21530;-72
2021/01/05 08:48:01;;;;;;;34.70;25.60;;;;;;;0.12;82.30;100604.17;1665640;86;21450;-72
2021/01/05 08:50:32;;;;;;;43.83;30.02;;;;;;;0.13;82.28;100614.95;1665239;86;21130;-73
2021/01/05 08:53:05;;;;;;;35.40;24.45;;;;;;;0.13;82.31;100616.25;1668680;85;21181;-72
2021/01/05 08:55:38;;;;;;;36.83;27.00;;;;;;;0.12;82.17;100613.25;1665157;86;22094;-72
2021/01/05 08:58:05;;;;;;;33.08;23.00;;;;;;;0.07;82.11;100612.54;1689717;85;21083;-72
2021/01/05 09:00:33;;;;;;;36.73;26.60;;;;;;;0.05;82.16;100613.05;1689858;85;21511;-72
2021/01/05 09:03:02;;;;;;;38.15;27.35;;;;;;;0.03;82.17;100609.66;1689840;85;21808;-74
2021/01/05 09:05:32;;;;;;;47.43;32.38;;;;;;;0.03;82.18;100595.38;1689657;84;21491;-74
2021/01/05 09:07:59;;;;;;;46.33;31.85;;;;;;;-0.01;82.17;100604.98;1689802;85;22041;-72
2021/01/05 09:10:27;;;;;;;43.92;29.98;;;;;;;-0.04;82.16;100607.25;1689788;85;21190;-73
2021/01/05 09:12:55;;;;;;;45.50;30.50;;;;;;;-0.06;82.18;100606.45;1689303;85;21088;-72
2021/01/05 09:15:23;;;;;;;42.40;29.48;;;;;;;-0.09;82.20;100606.56;1689792;85;21082;-72
2021/01/05 09:17:51;;;;;;;37.65;25.80;;;;;;;-0.10;82.24;100605.28;1689749;85;21134;-72
2021/01/05 09:20:22;;;;;;;42.30;28.57;;;;;;;-0.11;82.28;100603.59;1689858;85;21921;-73
2021/01/05 09:22:52;;;;;;;46.50;31.30;;;;;;;-0.10;82.30;100593.15;1689860;84;21591;-73
2021/01/05 09:25:20;;;;;;;42.62;28.35;;;;;;;-0.12;82.28;100598.84;1689115;84;21178;-73
2021/01/05 09:27:51;;;;;;;49.98;32.55;;;;;;;-0.12;82.26;100600.14;1689745;84;21170;-72
2021/01/05 09:30:22;;;;;;;48.75;33.00;;;;;;;-0.16;82.16;100592.52;1680477;85;21452;-73
2021/01/05 09:32:50;;;;;;;39.08;28.20;;;;;;;-0.16;82.12;100602.45;1677092;85;22989;-73
2021/01/05 09:35:18;;;;;;;45.12;29.60;;;;;;;-0.13;82.10;100588.52;1677667;85;21461;-73
2021/01/05 09:37:47;;;;;;;55.92;34.65;;;;;;;-0.11;82.10;100594.05;1677707;84;21516;-74
2021/01/05 09:40:16;;;;;;;47.80;32.38;;;;;;;-0.10;82.00;100597.05;1677598;85;21129;-73
2021/01/05 09:42:45;;;;;;;52.88;33.48;;;;;;;-0.13;81.93;100593.70;1677525;85;21543;-73
2021/01/05 09:45:14;;;;;;;47.08;30.77;;;;;;;-0.16;81.85;100587.33;1677757;85;22971;-74
2021/01/05 09:47:42;;;;;;;47.48;31.10;;;;;;;-0.17;81.88;100584.34;1677571;85;21094;-73
2021/01/05 09:50:11;;;;;;;51.85;33.90;;;;;;;-0.16;81.85;100580.84;1677664;85;21133;-73
2021/01/05 09:52:39;;;;;;;46.83;31.30;;;;;;;-0.18;81.82;100578.30;1676527;85;21136;-73
2021/01/05 09:55:08;;;;;;;50.70;31.55;;;;;;;-0.19;81.78;100574.42;1667497;86;21200;-74
2021/01/05 09:57:35;;;;;;;43.15;30.50;;;;;;;-0.21;81.74;100571.03;1650168;87;22087;-73
2021/01/05 10:00:05;;;;;;;51.18;33.45;;;;;;;-0.23;81.73;100571.09;1667053;85;21089;-73
2021/01/05 10:02:33;;;;;;;43.73;27.98;;;;;;;-0.23;81.74;100569.79;1651144;86;21082;-74
2021/01/05 10:05:01;;;;;;;52.05;32.98;;;;;;;-0.24;81.72;100565.95;1667504;85;21152;-72
2021/01/05 10:07:28;;;;;;;54.88;35.55;;;;;;;-0.28;81.64;100573.45;1650221;86;21173;-73
2021/01/05 10:09:56;;;;;;;52.25;32.50;;;;;;;-0.32;81.60;100568.78;1664826;86;21931;-72
2021/01/05 10:12:24;;;;;;;53.35;35.60;;;;;;;-0.35;81.55;100553.31;1660395;86;21114;-71
2021/01/05 10:14:51;;;;;;;56.28;35.23;;;;;;;-0.37;81.54;100565.05;1649275;87;21179;-71
2021/01/05 10:17:19;;;;;;;40.60;25.48;;;;;;;-0.38;81.51;100561.21;1660385;86;21157;-72
2021/01/05 10:19:46;;;;;;;50.05;31.87;;;;;;;-0.40;81.43;100552.15;1660352;85;21182;-72
2021/01/05 10:22:14;;;;;;;54.83;35.00;;;;;;;-0.44;81.38;100551.86;1660440;86;21916;-72
2021/01/05 10:24:41;;;;;;;59.20;38.50;;;;;;;-0.47;81.40;100552.41;1660381;86;21163;-72
2021/01/05 10:27:09;;;;;;;50.58;31.27;;;;;;;-0.49;81.51;100550.29;1659822;86;21142;-71
2021/01/05 10:29:36;;;;;;;59.55;37.65;;;;;;;-0.48;81.55;100548.97;1653379;86;21090;-72
2021/01/05 10:32:04;;;;;;;49.95;31.73;;;;;;;-0.46;81.56;100541.13;1646030;87;21125;-72
2021/01/05 10:34:32;;;;;;;51.30;31.93;;;;;;;-0.46;81.46;100526.41;1645976;87;21517;-72
2021/01/05 10:37:00;;;;;;;54.95;32.88;;;;;;;-0.45;81.46;100524.22;1646996;86;21576;-72
2021/01/05 10:39:29;;;;;;;51.85;32.17;;;;;;;-0.44;81.45;100514.69;1648825;87;21493;-72
2021/01/05 10:41:59;;;;;;;51.20;30.88;;;;;;;-0.43;81.35;100508.14;1648765;87;21183;-72
2021/01/05 10:44:27;;;;;;;58.78;35.78;;;;;;;-0.46;81.25;100493.98;1648769;87;21088;-72
2021/01/05 10:46:59;;;;;;;53.90;33.95;;;;;;;-0.47;81.29;100512.20;1648847;87;22790;-72
2021/01/05 10:49:26;;;;;;;60.40;38.90;;;;;;;-0.48;81.42;100519.55;1648779;87;21109;-72
2021/01/05 10:51:57;;;;;;;67.58;41.08;;;;;;;-0.50;81.52;100519.61;1648707;87;21501;-73
2021/01/05 10:54:28;;;;;;;69.15;42.78;;;;;;;-0.49;81.66;100521.75;1666759;85;21372;-72
2021/01/05 10:56:59;;;;;;;66.80;39.55;;;;;;;-0.49;81.76;100512.22;1675431;85;21087;-73
2021/01/05 10:59:27;;;;;;;68.17;41.50;;;;;;;-0.47;81.78;100508.30;1675449;85;22095;-73
2021/01/05 11:01:56;;;;;;;63.63;38.13;;;;;;;-0.44;81.83;100513.38;1646998;87;21132;-73
2021/01/05 11:04:24;;;;;;;66.30;40.40;;;;;;;-0.45;81.84;100519.02;1647135;87;21101;-73
2021/01/05 11:06:59;;;;;;;67.10;40.48;;;;;;;-0.46;81.88;100522.52;1647166;87;21727;-71
2021/01/05 11:09:28;;;;;;;72.37;40.92;;;;;;;-0.48;81.92;100517.84;1619335;88;21112;-73
2021/01/05 11:12:04;;;;;;;56.90;33.53;;;;;;;-0.45;81.93;100519.48;1646611;87;22054;-72
2021/01/05 11:14:32;;;;;;;60.95;35.88;;;;;;;-0.45;81.77;100515.59;1615535;87;21144;-72
2021/01/05 11:17:00;;;;;;;62.50;34.13;;;;;;;-0.49;81.61;100510.08;1624877;88;21174;-72
2021/01/05 11:19:28;;;;;;;65.45;39.13;;;;;;;-0.51;81.57;100519.66;1672473;85;21217;-71
2021/01/05 11:21:59;;;;;;;51.60;31.70;;;;;;;-0.53;81.47;100526.20;1672516;85;21074;-71
2021/01/05 11:24:27;;;;;;;61.85;36.17;;;;;;;-0.55;81.41;100531.05;1672403;85;22082;-72
2021/01/05 11:26:56;;;;;;;55.30;33.73;;;;;;;-0.59;81.37;100524.63;1672404;85;21518;-72
2021/01/05 11:29:24;;;;;;;62.08;36.40;;;;;;;-0.59;81.38;100502.58;1674884;85;21523;-72
2021/01/05 11:32:05;;;;;;;53.55;32.10;;;;;;;-0.58;81.43;100494.34;1647142;87;21101;-72
2021/01/05 11:34:32;;;;;;;58.35;37.03;;;;;;;-0.56;81.48;100485.24;1647155;87;21097;-72
2021/01/05 11:37:09;;;;;;;64.05;38.95;;;;;;;-0.56;81.55;100487.39;1647100;87;22924;-71
2021/01/05 11:39:39;;;;;;;52.98;32.42;;;;;;;-0.56;81.57;100489.98;1646684;87;21728;-71
2021/01/05 11:42:07;;;;;;;56.45;32.70;;;;;;;-0.54;81.57;100487.34;1619232;88;21109;-71
2021/01/05 11:44:34;;;;;;;59.35;37.53;;;;;;;-0.56;81.47;100483.50;1619041;88;21549;-72
2021/01/05 11:47:02;;;;;;;63.10;38.63;;;;;;;-0.59;81.39;100487.02;1647085;87;21096;-72